sensor_id;sensor_type;location;lat;lon;timestamp;pressure;altitude;pressure_sealevel;temperature;humidity
35291;BME280;21411;50.024;19.220;2023-03-20T00:01:14;98928.69;;;5.72;86.61
35291;BME280;21411;50.024;19.220;2023-03-20T00:03:42;98929.30;;;5.70;86.42
35291;BME280;21411;50.024;19.220;2023-03-20T00:06:16;98925.04;;;5.67;86.88
35291;BME280;21411;50.024;19.220;2023-03-20T00:08:45;98926.67;;;5.63;87.42
35291;BME280;21411;50.024;19.220;2023-03-20T00:13:52;98926.17;;;5.58;87.75
35291;BME280;21411;50.024;19.220;2023-03-20T00:16:20;98926.73;;;5.58;88.51
35291;BME280;21411;50.024;19.220;2023-03-20T00:18:48;98930.31;;;5.57;89.42
35291;BME280;21411;50.024;19.220;2023-03-20T00:21:24;98931.64;;;5.55;89.49
35291;BME280;21411;50.024;19.220;2023-03-20T00:23:51;98930.50;;;5.53;89.28
35291;BME280;21411;50.024;19.220;2023-03-20T00:26:18;98931.27;;;5.51;88.78
35291;BME280;21411;50.024;19.220;2023-03-20T00:28:46;98931.64;;;5.51;88.46
35291;BME280;21411;50.024;19.220;2023-03-20T00:31:28;98927.84;;;5.49;88.37
35291;BME280;21411;50.024;19.220;2023-03-20T00:33:58;98927.55;;;5.48;88.36
35291;BME280;21411;50.024;19.220;2023-03-20T00:36:26;98926.09;;;5.45;88.88
35291;BME280;21411;50.024;19.220;2023-03-20T00:38:53;98921.30;;;5.42;88.94
35291;BME280;21411;50.024;19.220;2023-03-20T00:43:51;98923.27;;;5.38;89.10
35291;BME280;21411;50.024;19.220;2023-03-20T00:46:19;98921.08;;;5.36;89.32
35291;BME280;21411;50.024;19.220;2023-03-20T00:48:46;98920.98;;;5.34;89.57
35291;BME280;21411;50.024;19.220;2023-03-20T00:51:13;98922.14;;;5.32;89.66
35291;BME280;21411;50.024;19.220;2023-03-20T00:53:40;98918.33;;;5.31;89.68
35291;BME280;21411;50.024;19.220;2023-03-20T00:58:50;98912.48;;;5.27;90.03
35291;BME280;21411;50.024;19.220;2023-03-20T01:01:17;98909.92;;;5.25;90.27
35291;BME280;21411;50.024;19.220;2023-03-20T01:03:44;98909.84;;;5.24;90.53
35291;BME280;21411;50.024;19.220;2023-03-20T01:06:11;98912.17;;;5.23;90.87
35291;BME280;21411;50.024;19.220;2023-03-20T01:08:38;98911.89;;;5.21;91.91
35291;BME280;21411;50.024;19.220;2023-03-20T01:11:05;98907.21;;;5.19;92.40
35291;BME280;21411;50.024;19.220;2023-03-20T01:13:32;98905.98;;;5.19;92.75
35291;BME280;21411;50.024;19.220;2023-03-20T01:15:58;98903.02;;;5.19;93.02
35291;BME280;21411;50.024;19.220;2023-03-20T01:18:26;98904.55;;;5.16;93.27
35291;BME280;21411;50.024;19.220;2023-03-20T01:20:52;98904.57;;;5.12;93.66
35291;BME280;21411;50.024;19.220;2023-03-20T01:23:20;98906.11;;;5.09;93.97
35291;BME280;21411;50.024;19.220;2023-03-20T01:25:49;98908.77;;;5.08;94.24
35291;BME280;21411;50.024;19.220;2023-03-20T01:28:21;98905.98;;;5.07;94.38
35291;BME280;21411;50.024;19.220;2023-03-20T01:30:49;98910.21;;;5.08;94.77
35291;BME280;21411;50.024;19.220;2023-03-20T01:33:18;98909.89;;;5.07;95.11
35291;BME280;21411;50.024;19.220;2023-03-20T01:35:46;98913.98;;;5.06;95.63
35291;BME280;21411;50.024;19.220;2023-03-20T01:38:20;98913.93;;;5.03;95.97
35291;BME280;21411;50.024;19.220;2023-03-20T01:43:17;98913.90;;;5.00;96.60
35291;BME280;21411;50.024;19.220;2023-03-20T01:48:59;98913.73;;;5.00;97.02
35291;BME280;21411;50.024;19.220;2023-03-20T01:51:27;98914.76;;;5.01;97.28
35291;BME280;21411;50.024;19.220;2023-03-20T01:53:58;98916.52;;;5.01;97.47
35291;BME280;21411;50.024;19.220;2023-03-20T01:56:29;98915.98;;;5.01;97.42
35291;BME280;21411;50.024;19.220;2023-03-20T01:59:02;98917.73;;;5.01;97.95
35291;BME280;21411;50.024;19.220;2023-03-20T02:01:32;98922.85;;;5.01;97.93
35291;BME280;21411;50.024;19.220;2023-03-20T02:04:01;98920.95;;;5.00;98.30
35291;BME280;21411;50.024;19.220;2023-03-20T02:06:28;98919.25;;;4.99;98.65
35291;BME280;21411;50.024;19.220;2023-03-20T02:08:54;98923.13;;;4.99;98.58
35291;BME280;21411;50.024;19.220;2023-03-20T02:11:23;98923.83;;;4.99;98.44
35291;BME280;21411;50.024;19.220;2023-03-20T02:13:53;98924.15;;;4.99;98.58
35291;BME280;21411;50.024;19.220;2023-03-20T02:16:21;98922.20;;;5.00;98.32
35291;BME280;21411;50.024;19.220;2023-03-20T02:18:49;98925.87;;;5.01;98.89
35291;BME280;21411;50.024;19.220;2023-03-20T02:27:04;98917.96;;;5.00;99.63
35291;BME280;21411;50.024;19.220;2023-03-20T02:35:40;98914.23;;;4.89;100.00
35291;BME280;21411;50.024;19.220;2023-03-20T02:38:17;98914.39;;;4.86;100.00
35291;BME280;21411;50.024;19.220;2023-03-20T02:43:41;98913.52;;;4.86;100.00
35291;BME280;21411;50.024;19.220;2023-03-20T02:51:50;98905.13;;;4.88;100.00
35291;BME280;21411;50.024;19.220;2023-03-20T02:57:07;98904.94;;;4.92;100.00
35291;BME280;21411;50.024;19.220;2023-03-20T02:59:49;98906.30;;;4.93;100.00
35291;BME280;21411;50.024;19.220;2023-03-20T03:02:25;98904.35;;;4.93;100.00
35291;BME280;21411;50.024;19.220;2023-03-20T03:04:59;98902.45;;;4.92;100.00
35291;BME280;21411;50.024;19.220;2023-03-20T03:07:29;98908.89;;;4.91;100.00
35291;BME280;21411;50.024;19.220;2023-03-20T03:10:08;98907.28;;;4.87;100.00
35291;BME280;21411;50.024;19.220;2023-03-20T03:12:39;98903.33;;;4.85;100.00
35291;BME280;21411;50.024;19.220;2023-03-20T03:15:17;98904.17;;;4.86;100.00
35291;BME280;21411;50.024;19.220;2023-03-20T03:17:46;98904.55;;;4.85;100.00
35291;BME280;21411;50.024;19.220;2023-03-20T03:20:25;98903.95;;;4.83;100.00
35291;BME280;21411;50.024;19.220;2023-03-20T03:22:53;98901.98;;;4.80;100.00
35291;BME280;21411;50.024;19.220;2023-03-20T03:25:23;98903.53;;;4.77;100.00
35291;BME280;21411;50.024;19.220;2023-03-20T03:30:37;98903.54;;;4.68;100.00
35291;BME280;21411;50.024;19.220;2023-03-20T03:35:45;98904.75;;;4.61;100.00
35291;BME280;21411;50.024;19.220;2023-03-20T03:43:23;98910.89;;;4.61;100.00
35291;BME280;21411;50.024;19.220;2023-03-20T03:46:00;98910.02;;;4.57;100.00
35291;BME280;21411;50.024;19.220;2023-03-20T03:48:32;98910.83;;;4.54;100.00
35291;BME280;21411;50.024;19.220;2023-03-20T03:51:08;98910.20;;;4.53;100.00
35291;BME280;21411;50.024;19.220;2023-03-20T03:53:44;98910.04;;;4.53;100.00
35291;BME280;21411;50.024;19.220;2023-03-20T03:56:17;98908.11;;;4.52;100.00
35291;BME280;21411;50.024;19.220;2023-03-20T03:58:58;98911.35;;;4.51;100.00
35291;BME280;21411;50.024;19.220;2023-03-20T04:01:27;98914.55;;;4.46;100.00
35291;BME280;21411;50.024;19.220;2023-03-20T04:03:57;98917.88;;;4.43;100.00
35291;BME280;21411;50.024;19.220;2023-03-20T04:06:26;98920.05;;;4.41;100.00
35291;BME280;21411;50.024;19.220;2023-03-20T04:08:53;98918.67;;;4.40;100.00
35291;BME280;21411;50.024;19.220;2023-03-20T04:11:24;98918.89;;;4.39;100.00
35291;BME280;21411;50.024;19.220;2023-03-20T04:13:54;98921.58;;;4.38;100.00
35291;BME280;21411;50.024;19.220;2023-03-20T04:16:23;98919.73;;;4.36;100.00
35291;BME280;21411;50.024;19.220;2023-03-20T04:18:49;98917.02;;;4.33;100.00
35291;BME280;21411;50.024;19.220;2023-03-20T04:21:17;98915.89;;;4.31;100.00
35291;BME280;21411;50.024;19.220;2023-03-20T04:23:44;98912.45;;;4.29;100.00
35291;BME280;21411;50.024;19.220;2023-03-20T04:26:11;98917.48;;;4.27;100.00
35291;BME280;21411;50.024;19.220;2023-03-20T04:28:38;98920.60;;;4.24;100.00
35291;BME280;21411;50.024;19.220;2023-03-20T04:31:05;98919.15;;;4.20;100.00
35291;BME280;21411;50.024;19.220;2023-03-20T04:33:31;98916.70;;;4.16;100.00
35291;BME280;21411;50.024;19.220;2023-03-20T04:35:58;98919.14;;;4.12;100.00
35291;BME280;21411;50.024;19.220;2023-03-20T04:38:25;98919.25;;;4.10;100.00
35291;BME280;21411;50.024;19.220;2023-03-20T04:40:52;98919.67;;;4.08;100.00
35291;BME280;21411;50.024;19.220;2023-03-20T04:43:18;98920.81;;;4.06;100.00
35291;BME280;21411;50.024;19.220;2023-03-20T04:45:46;98922.53;;;4.03;100.00
35291;BME280;21411;50.024;19.220;2023-03-20T04:48:13;98926.34;;;4.00;100.00
35291;BME280;21411;50.024;19.220;2023-03-20T04:50:39;98923.24;;;3.94;100.00
35291;BME280;21411;50.024;19.220;2023-03-20T04:53:06;98923.08;;;3.90;100.00
35291;BME280;21411;50.024;19.220;2023-03-20T04:55:33;98922.98;;;3.88;100.00
35291;BME280;21411;50.024;19.220;2023-03-20T04:57:59;98930.08;;;3.86;100.00
35291;BME280;21411;50.024;19.220;2023-03-20T05:00:26;98931.04;;;3.84;100.00
35291;BME280;21411;50.024;19.220;2023-03-20T05:02:53;98932.11;;;3.83;100.00
35291;BME280;21411;50.024;19.220;2023-03-20T05:05:19;98935.50;;;3.82;100.00
35291;BME280;21411;50.024;19.220;2023-03-20T05:07:46;98937.34;;;3.81;100.00
35291;BME280;21411;50.024;19.220;2023-03-20T05:10:13;98936.65;;;3.80;100.00
35291;BME280;21411;50.024;19.220;2023-03-20T05:12:40;98935.55;;;3.81;100.00
35291;BME280;21411;50.024;19.220;2023-03-20T05:15:07;98936.72;;;3.83;100.00
35291;BME280;21411;50.024;19.220;2023-03-20T05:17:34;98938.80;;;3.84;100.00
35291;BME280;21411;50.024;19.220;2023-03-20T05:20:01;98942.27;;;3.85;100.00
35291;BME280;21411;50.024;19.220;2023-03-20T05:22:27;98941.14;;;3.86;100.00
35291;BME280;21411;50.024;19.220;2023-03-20T05:24:54;98938.00;;;3.90;100.00
35291;BME280;21411;50.024;19.220;2023-03-20T05:27:21;98940.85;;;3.93;100.00
35291;BME280;21411;50.024;19.220;2023-03-20T05:29:48;98939.04;;;3.94;100.00
35291;BME280;21411;50.024;19.220;2023-03-20T05:32:14;98940.29;;;3.99;100.00
35291;BME280;21411;50.024;19.220;2023-03-20T05:34:41;98939.23;;;4.03;100.00
35291;BME280;21411;50.024;19.220;2023-03-20T05:37:07;98941.33;;;4.07;100.00
35291;BME280;21411;50.024;19.220;2023-03-20T05:39:34;98943.91;;;4.13;100.00
35291;BME280;21411;50.024;19.220;2023-03-20T05:42:01;98945.44;;;4.18;100.00
35291;BME280;21411;50.024;19.220;2023-03-20T05:44:27;98945.09;;;4.27;100.00
35291;BME280;21411;50.024;19.220;2023-03-20T05:46:54;98945.65;;;4.38;100.00
35291;BME280;21411;50.024;19.220;2023-03-20T05:49:21;98950.13;;;4.53;100.00
35291;BME280;21411;50.024;19.220;2023-03-20T05:51:47;98950.39;;;4.67;100.00
35291;BME280;21411;50.024;19.220;2023-03-20T05:54:14;98950.05;;;4.83;100.00
35291;BME280;21411;50.024;19.220;2023-03-20T05:56:41;98946.71;;;4.99;100.00
35291;BME280;21411;50.024;19.220;2023-03-20T05:59:08;98945.27;;;5.15;100.00
35291;BME280;21411;50.024;19.220;2023-03-20T06:01:34;98942.79;;;5.35;100.00
35291;BME280;21411;50.024;19.220;2023-03-20T06:04:01;98949.11;;;5.58;100.00
35291;BME280;21411;50.024;19.220;2023-03-20T06:06:28;98946.16;;;5.83;100.00
35291;BME280;21411;50.024;19.220;2023-03-20T06:08:55;98948.14;;;6.08;100.00
35291;BME280;21411;50.024;19.220;2023-03-20T06:11:21;98948.56;;;6.31;100.00
35291;BME280;21411;50.024;19.220;2023-03-20T06:13:48;98949.67;;;6.51;100.00
35291;BME280;21411;50.024;19.220;2023-03-20T06:16:16;98955.52;;;6.67;100.00
35291;BME280;21411;50.024;19.220;2023-03-20T06:18:43;98960.56;;;6.83;100.00
35291;BME280;21411;50.024;19.220;2023-03-20T06:21:09;98963.98;;;6.95;100.00
35291;BME280;21411;50.024;19.220;2023-03-20T06:23:38;98962.02;;;7.06;100.00
35291;BME280;21411;50.024;19.220;2023-03-20T06:26:05;98963.32;;;7.15;100.00
35291;BME280;21411;50.024;19.220;2023-03-20T06:28:31;98963.97;;;7.22;100.00
35291;BME280;21411;50.024;19.220;2023-03-20T06:30:58;98963.84;;;7.31;100.00
35291;BME280;21411;50.024;19.220;2023-03-20T06:33:25;98969.92;;;7.39;100.00
35291;BME280;21411;50.024;19.220;2023-03-20T06:35:51;98969.90;;;7.46;100.00
35291;BME280;21411;50.024;19.220;2023-03-20T06:38:18;98971.38;;;7.52;100.00
35291;BME280;21411;50.024;19.220;2023-03-20T06:40:45;98974.96;;;7.57;100.00
35291;BME280;21411;50.024;19.220;2023-03-20T06:43:11;98974.80;;;7.64;99.33
35291;BME280;21411;50.024;19.220;2023-03-20T06:45:38;98971.83;;;7.73;98.50
35291;BME280;21411;50.024;19.220;2023-03-20T06:48:07;98969.27;;;7.83;97.07
35291;BME280;21411;50.024;19.220;2023-03-20T06:50:34;98965.67;;;7.94;95.89
35291;BME280;21411;50.024;19.220;2023-03-20T06:53:01;98966.11;;;8.05;94.91
35291;BME280;21411;50.024;19.220;2023-03-20T06:55:27;98969.53;;;8.16;93.51
35291;BME280;21411;50.024;19.220;2023-03-20T06:57:54;98970.01;;;8.26;92.62
35291;BME280;21411;50.024;19.220;2023-03-20T07:00:21;98975.24;;;8.37;92.34
35291;BME280;21411;50.024;19.220;2023-03-20T07:02:48;98975.55;;;8.47;91.45
35291;BME280;21411;50.024;19.220;2023-03-20T07:05:15;98982.20;;;8.54;90.54
35291;BME280;21411;50.024;19.220;2023-03-20T07:07:42;98985.05;;;8.61;89.71
35291;BME280;21411;50.024;19.220;2023-03-20T07:10:10;98989.27;;;8.64;88.18
35291;BME280;21411;50.024;19.220;2023-03-20T07:12:37;98992.55;;;8.66;87.17
35291;BME280;21411;50.024;19.220;2023-03-20T07:15:04;98993.36;;;8.70;86.95
35291;BME280;21411;50.024;19.220;2023-03-20T07:17:32;98996.71;;;8.75;86.14
35291;BME280;21411;50.024;19.220;2023-03-20T07:19:58;98996.79;;;8.84;85.54
35291;BME280;21411;50.024;19.220;2023-03-20T07:22:26;98996.42;;;8.95;85.12
35291;BME280;21411;50.024;19.220;2023-03-20T07:24:53;98996.80;;;9.10;84.08
35291;BME280;21411;50.024;19.220;2023-03-20T07:27:20;98994.52;;;9.27;83.76
35291;BME280;21411;50.024;19.220;2023-03-20T07:29:46;98994.38;;;9.49;83.62
35291;BME280;21411;50.024;19.220;2023-03-20T07:32:13;98991.54;;;9.72;82.63
35291;BME280;21411;50.024;19.220;2023-03-20T07:34:39;98990.73;;;9.93;81.59
35291;BME280;21411;50.024;19.220;2023-03-20T07:37:06;98989.81;;;10.12;80.50
35291;BME280;21411;50.024;19.220;2023-03-20T07:39:33;98989.83;;;10.32;80.30
35291;BME280;21411;50.024;19.220;2023-03-20T07:42:00;98989.17;;;10.50;79.81
35291;BME280;21411;50.024;19.220;2023-03-20T07:44:27;98990.11;;;10.62;78.58
35291;BME280;21411;50.024;19.220;2023-03-20T07:46:53;98989.59;;;10.70;76.82
35291;BME280;21411;50.024;19.220;2023-03-20T07:49:20;98989.30;;;10.80;76.72
35291;BME280;21411;50.024;19.220;2023-03-20T07:51:48;98987.56;;;10.87;75.35
35291;BME280;21411;50.024;19.220;2023-03-20T07:54:15;98992.65;;;10.90;74.68
35291;BME280;21411;50.024;19.220;2023-03-20T07:56:42;98991.79;;;10.95;74.92
35291;BME280;21411;50.024;19.220;2023-03-20T07:59:09;98994.66;;;11.05;74.84
35291;BME280;21411;50.024;19.220;2023-03-20T08:01:36;98994.05;;;11.16;74.78
35291;BME280;21411;50.024;19.220;2023-03-20T08:04:02;98995.14;;;11.32;75.12
35291;BME280;21411;50.024;19.220;2023-03-20T08:06:29;98999.05;;;11.44;74.41
35291;BME280;21411;50.024;19.220;2023-03-20T08:08:56;99001.79;;;11.53;73.96
35291;BME280;21411;50.024;19.220;2023-03-20T08:11:22;99000.83;;;11.57;73.72
35291;BME280;21411;50.024;19.220;2023-03-20T08:13:49;98999.33;;;11.60;73.73
35291;BME280;21411;50.024;19.220;2023-03-20T08:16:16;98999.23;;;11.69;73.75
35291;BME280;21411;50.024;19.220;2023-03-20T08:18:43;98996.09;;;11.73;72.93
35291;BME280;21411;50.024;19.220;2023-03-20T08:21:09;98997.64;;;11.72;72.73
35291;BME280;21411;50.024;19.220;2023-03-20T08:23:36;98996.23;;;11.71;72.47
35291;BME280;21411;50.024;19.220;2023-03-20T08:26:02;98997.59;;;11.77;72.78
35291;BME280;21411;50.024;19.220;2023-03-20T08:28:29;98999.35;;;11.88;72.58
35291;BME280;21411;50.024;19.220;2023-03-20T08:30:56;98997.77;;;12.00;71.55
35291;BME280;21411;50.024;19.220;2023-03-20T08:33:22;98997.39;;;12.17;71.07
35291;BME280;21411;50.024;19.220;2023-03-20T08:35:56;98996.80;;;12.35;70.23
35291;BME280;21411;50.024;19.220;2023-03-20T08:38:24;98998.94;;;12.45;69.58
35291;BME280;21411;50.024;19.220;2023-03-20T08:40:50;99001.73;;;12.47;69.23
35291;BME280;21411;50.024;19.220;2023-03-20T08:43:17;98995.36;;;12.54;69.58
35291;BME280;21411;50.024;19.220;2023-03-20T08:45:44;98996.66;;;12.65;69.47
35291;BME280;21411;50.024;19.220;2023-03-20T08:48:11;98993.09;;;12.77;69.26
35291;BME280;21411;50.024;19.220;2023-03-20T08:50:38;98992.36;;;12.84;68.81
35291;BME280;21411;50.024;19.220;2023-03-20T08:53:05;98995.66;;;12.95;68.90
35291;BME280;21411;50.024;19.220;2023-03-20T08:55:32;98996.16;;;13.07;69.15
35291;BME280;21411;50.024;19.220;2023-03-20T08:57:59;98994.28;;;13.22;69.66
35291;BME280;21411;50.024;19.220;2023-03-20T09:00:26;98992.48;;;13.36;69.40
35291;BME280;21411;50.024;19.220;2023-03-20T09:02:52;98991.05;;;13.32;69.13
35291;BME280;21411;50.024;19.220;2023-03-20T09:05:19;98993.08;;;13.24;69.46
35291;BME280;21411;50.024;19.220;2023-03-20T09:07:46;98990.34;;;13.20;69.85
35291;BME280;21411;50.024;19.220;2023-03-20T09:10:13;98991.16;;;13.16;69.48
35291;BME280;21411;50.024;19.220;2023-03-20T09:12:39;98994.15;;;13.03;69.22
35291;BME280;21411;50.024;19.220;2023-03-20T09:15:07;98992.63;;;12.95;70.23
35291;BME280;21411;50.024;19.220;2023-03-20T09:17:33;98996.55;;;12.95;70.88
35291;BME280;21411;50.024;19.220;2023-03-20T09:20:00;98996.72;;;13.00;71.59
35291;BME280;21411;50.024;19.220;2023-03-20T09:22:27;99001.02;;;13.09;71.94
35291;BME280;21411;50.024;19.220;2023-03-20T09:24:53;99002.88;;;13.14;72.18
35291;BME280;21411;50.024;19.220;2023-03-20T09:27:20;99001.47;;;13.10;72.60
35291;BME280;21411;50.024;19.220;2023-03-20T09:29:47;98999.84;;;13.10;73.60
35291;BME280;21411;50.024;19.220;2023-03-20T09:32:14;98997.73;;;13.26;74.07
35291;BME280;21411;50.024;19.220;2023-03-20T09:34:41;98992.31;;;13.56;74.56
35291;BME280;21411;50.024;19.220;2023-03-20T09:37:08;98990.31;;;13.81;74.60
35291;BME280;21411;50.024;19.220;2023-03-20T09:39:35;98989.48;;;13.92;74.66
35291;BME280;21411;50.024;19.220;2023-03-20T09:42:41;98991.88;;;13.95;74.97
35291;BME280;21411;50.024;19.220;2023-03-20T09:45:23;98992.10;;;13.97;75.41
35291;BME280;21411;50.024;19.220;2023-03-20T09:47:59;98985.50;;;13.95;76.15
35291;BME280;21411;50.024;19.220;2023-03-20T09:50:49;98985.95;;;13.92;76.61
35291;BME280;21411;50.024;19.220;2023-03-20T09:53:26;98990.41;;;13.85;77.18
35291;BME280;21411;50.024;19.220;2023-03-20T09:55:56;98986.33;;;13.69;78.03
35291;BME280;21411;50.024;19.220;2023-03-20T09:58:26;98991.05;;;13.52;78.67
35291;BME280;21411;50.024;19.220;2023-03-20T10:00:57;98993.38;;;13.41;79.32
35291;BME280;21411;50.024;19.220;2023-03-20T10:03:31;98994.99;;;13.36;80.16
35291;BME280;21411;50.024;19.220;2023-03-20T10:06:11;98996.84;;;13.31;80.72
35291;BME280;21411;50.024;19.220;2023-03-20T10:08:39;98996.27;;;13.24;81.32
35291;BME280;21411;50.024;19.220;2023-03-20T10:11:14;98996.64;;;13.17;81.87
35291;BME280;21411;50.024;19.220;2023-03-20T10:13:58;98993.13;;;13.14;82.30
35291;BME280;21411;50.024;19.220;2023-03-20T10:21:49;98989.40;;;13.23;82.82
35291;BME280;21411;50.024;19.220;2023-03-20T10:24:35;98989.61;;;13.39;82.92
35291;BME280;21411;50.024;19.220;2023-03-20T10:32:46;98978.14;;;13.71;82.60
35291;BME280;21411;50.024;19.220;2023-03-20T10:37:54;98976.79;;;14.14;81.98
35291;BME280;21411;50.024;19.220;2023-03-20T10:40:34;98976.75;;;14.21;81.02
35291;BME280;21411;50.024;19.220;2023-03-20T10:46:05;98977.98;;;14.15;81.69
35291;BME280;21411;50.024;19.220;2023-03-20T10:48:39;98976.09;;;14.31;82.20
35291;BME280;21411;50.024;19.220;2023-03-20T10:51:14;98974.20;;;14.43;81.84
35291;BME280;21411;50.024;19.220;2023-03-20T10:53:47;98969.05;;;14.64;81.40
35291;BME280;21411;50.024;19.220;2023-03-20T10:56:27;98962.66;;;14.94;81.23
35291;BME280;21411;50.024;19.220;2023-03-20T11:01:42;98959.92;;;15.21;78.88
35291;BME280;21411;50.024;19.220;2023-03-20T11:04:09;98959.14;;;15.28;78.48
35291;BME280;21411;50.024;19.220;2023-03-20T11:06:59;98959.59;;;15.40;78.27
35291;BME280;21411;50.024;19.220;2023-03-20T11:09:28;98956.46;;;15.49;77.98
35291;BME280;21411;50.024;19.220;2023-03-20T11:12:01;98951.00;;;15.60;78.19
35291;BME280;21411;50.024;19.220;2023-03-20T11:14:36;98952.06;;;15.74;77.68
35291;BME280;21411;50.024;19.220;2023-03-20T11:17:04;98950.02;;;15.63;77.26
35291;BME280;21411;50.024;19.220;2023-03-20T11:19:34;98952.11;;;15.53;77.13
35291;BME280;21411;50.024;19.220;2023-03-20T11:24:46;98952.41;;;15.34;76.03
35291;BME280;21411;50.024;19.220;2023-03-20T11:27:17;98944.00;;;15.38;75.59
35291;BME280;21411;50.024;19.220;2023-03-20T11:29:47;98937.18;;;15.48;75.93
35291;BME280;21411;50.024;19.220;2023-03-20T11:32:31;98933.84;;;15.64;75.89
35291;BME280;21411;50.024;19.220;2023-03-20T11:35:29;98939.10;;;15.75;75.26
35291;BME280;21411;50.024;19.220;2023-03-20T11:38:15;98934.48;;;15.85;75.72
35291;BME280;21411;50.024;19.220;2023-03-20T11:40:42;98927.73;;;15.96;75.50
35291;BME280;21411;50.024;19.220;2023-03-20T11:43:16;98927.85;;;15.99;74.74
35291;BME280;21411;50.024;19.220;2023-03-20T11:45:46;98929.65;;;15.93;74.25
35291;BME280;21411;50.024;19.220;2023-03-20T11:48:22;98931.85;;;15.86;74.13
35291;BME280;21411;50.024;19.220;2023-03-20T11:50:59;98931.04;;;15.81;74.16
35291;BME280;21411;50.024;19.220;2023-03-20T11:53:31;98926.81;;;15.74;74.47
35291;BME280;21411;50.024;19.220;2023-03-20T11:56:07;98922.54;;;15.78;74.79
35291;BME280;21411;50.024;19.220;2023-03-20T12:01:16;98922.94;;;15.88;74.33
35291;BME280;21411;50.024;19.220;2023-03-20T12:03:49;98925.04;;;15.76;74.13
35291;BME280;21411;50.024;19.220;2023-03-20T12:06:21;98919.77;;;15.69;74.60
35291;BME280;21411;50.024;19.220;2023-03-20T12:08:53;98918.20;;;15.62;75.04
35291;BME280;21411;50.024;19.220;2023-03-20T12:19:57;98911.17;;;15.69;74.17
35291;BME280;21411;50.024;19.220;2023-03-20T12:22:29;98904.83;;;15.53;74.63
35291;BME280;21411;50.024;19.220;2023-03-20T12:25:06;98903.97;;;15.51;74.97
35291;BME280;21411;50.024;19.220;2023-03-20T12:27:36;98903.43;;;15.51;75.49
35291;BME280;21411;50.024;19.220;2023-03-20T12:30:09;98902.16;;;15.49;75.80
35291;BME280;21411;50.024;19.220;2023-03-20T12:32:45;98899.58;;;15.56;75.87
35291;BME280;21411;50.024;19.220;2023-03-20T12:35:23;98897.25;;;15.77;75.52
35291;BME280;21411;50.024;19.220;2023-03-20T12:37:51;98893.83;;;16.01;75.27
35291;BME280;21411;50.024;19.220;2023-03-20T12:40:20;98892.45;;;16.20;75.32
35291;BME280;21411;50.024;19.220;2023-03-20T12:46:15;98886.52;;;16.43;74.14
35291;BME280;21411;50.024;19.220;2023-03-20T12:51:49;98883.20;;;16.26;72.69
35291;BME280;21411;50.024;19.220;2023-03-20T13:00:17;98880.81;;;16.39;72.59
35291;BME280;21411;50.024;19.220;2023-03-20T13:03:01;98880.83;;;16.52;71.78
35291;BME280;21411;50.024;19.220;2023-03-20T13:08:59;98871.55;;;16.86;71.33
35291;BME280;21411;50.024;19.220;2023-03-20T13:11:39;98873.45;;;17.04;70.21
35291;BME280;21411;50.024;19.220;2023-03-20T13:30:59;98853.50;;;17.14;67.56
35291;BME280;21411;50.024;19.220;2023-03-20T13:36:17;98852.39;;;16.80;67.56
35291;BME280;21411;50.024;19.220;2023-03-20T13:38:53;98850.13;;;16.60;67.05
35291;BME280;21411;50.024;19.220;2023-03-20T13:41:24;98852.92;;;16.44;67.06
35291;BME280;21411;50.024;19.220;2023-03-20T13:43:55;98854.46;;;16.21;65.84
35291;BME280;21411;50.024;19.220;2023-03-20T13:46:28;98854.38;;;15.93;66.31
35291;BME280;21411;50.024;19.220;2023-03-20T13:49:04;98852.51;;;15.74;67.21
35291;BME280;21411;50.024;19.220;2023-03-20T13:51:38;98852.92;;;15.61;67.60
35291;BME280;21411;50.024;19.220;2023-03-20T13:59:41;98858.20;;;15.16;67.19
35291;BME280;21411;50.024;19.220;2023-03-20T14:02:39;98856.88;;;15.03;67.26
35291;BME280;21411;50.024;19.220;2023-03-20T14:05:16;98855.39;;;14.89;67.53
35291;BME280;21411;50.024;19.220;2023-03-20T14:07:48;98854.69;;;14.81;67.81
35291;BME280;21411;50.024;19.220;2023-03-20T14:15:18;98862.01;;;14.70;68.67
35291;BME280;21411;50.024;19.220;2023-03-20T14:17:47;98862.86;;;14.68;68.93
35291;BME280;21411;50.024;19.220;2023-03-20T14:23:03;98861.56;;;14.63;69.19
35291;BME280;21411;50.024;19.220;2023-03-20T14:25:35;98862.27;;;14.55;69.47
35291;BME280;21411;50.024;19.220;2023-03-20T14:30:46;98872.07;;;14.35;70.17
35291;BME280;21411;50.024;19.220;2023-03-20T14:41:48;98873.56;;;14.05;72.05
35291;BME280;21411;50.024;19.220;2023-03-20T14:50:25;98878.41;;;13.70;77.02
35291;BME280;21411;50.024;19.220;2023-03-20T14:56:06;98877.47;;;13.40;79.44
35291;BME280;21411;50.024;19.220;2023-03-20T15:01:08;98875.63;;;13.27;81.48
35291;BME280;21411;50.024;19.220;2023-03-20T15:03:40;98871.05;;;13.24;82.02
35291;BME280;21411;50.024;19.220;2023-03-20T15:06:08;98871.66;;;13.23;82.67
35291;BME280;21411;50.024;19.220;2023-03-20T15:08:42;98869.23;;;13.22;83.32
35291;BME280;21411;50.024;19.220;2023-03-20T15:11:12;98867.13;;;13.22;83.67
35291;BME280;21411;50.024;19.220;2023-03-20T15:13:40;98864.52;;;13.21;84.21
35291;BME280;21411;50.024;19.220;2023-03-20T15:16:11;98868.48;;;13.20;84.61
35291;BME280;21411;50.024;19.220;2023-03-20T15:18:43;98867.12;;;13.19;84.88
35291;BME280;21411;50.024;19.220;2023-03-20T15:21:15;98861.95;;;13.17;84.97
35291;BME280;21411;50.024;19.220;2023-03-20T15:23:44;98861.98;;;13.16;85.30
35291;BME280;21411;50.024;19.220;2023-03-20T15:26:16;98859.95;;;13.17;86.00
35291;BME280;21411;50.024;19.220;2023-03-20T15:28:45;98861.33;;;13.18;86.39
35291;BME280;21411;50.024;19.220;2023-03-20T15:31:22;98858.85;;;13.17;86.91
35291;BME280;21411;50.024;19.220;2023-03-20T15:33:50;98856.85;;;13.18;87.32
35291;BME280;21411;50.024;19.220;2023-03-20T15:36:21;98855.33;;;13.20;87.30
35291;BME280;21411;50.024;19.220;2023-03-20T15:38:48;98853.08;;;13.21;87.39